Time;durP1;ratioP1;P1;durP2;ratioP2;P2;SDS_P1;SDS_P2;PMS_P1;PMS_P2;Temp;Humidity;BMP_temperature;BMP_pressure;BME280_temperature;BME280_humidity;BME280_pressure;Samples;Min_cycle;Max_cycle;Signal;HPM_P1;HPM_P2
2022/05/15 00:02:05;;;;;;;18.88;5.57;;;9.30;99.90;;;;;;5067355;28;20049;-68
2022/05/15 00:04:31;;;;;;;23.05;7.10;;;9.30;99.90;;;;;;5067310;28;20049;-68
2022/05/15 00:06:57;;;;;;;24.40;8.52;;;9.30;99.90;;;;;;5066853;28;20535;-68
2022/05/15 00:09:23;;;;;;;23.90;7.47;;;9.20;99.90;;;;;;5067057;28;20076;-68
2022/05/15 00:11:49;;;;;;;25.20;7.53;;;9.00;99.90;;;;;;5067096;28;20098;-68
2022/05/15 00:14:15;;;;;;;19.35;5.43;;;9.00;99.90;;;;;;5067253;28;20044;-68
2022/05/15 00:16:41;;;;;;;23.90;5.93;;;8.70;99.90;;;;;;5066990;28;20048;-68
2022/05/15 00:19:06;;;;;;;20.25;7.22;;;8.90;99.90;;;;;;5067344;28;20044;-68
2022/05/15 00:21:33;;;;;;;20.13;6.47;;;8.90;99.90;;;;;;5067035;28;20074;-68
2022/05/15 00:23:59;;;;;;;18.90;6.60;;;9.00;99.90;;;;;;5067172;28;20049;-68
2022/05/15 00:26:25;;;;;;;16.25;6.22;;;9.00;99.90;;;;;;5066981;28;20063;-68
2022/05/15 00:28:51;;;;;;;19.23;6.85;;;8.80;99.90;;;;;;5067253;28;20186;-68
2022/05/15 00:31:17;;;;;;;31.80;7.97;;;8.90;99.90;;;;;;5066780;28;20075;-68
2022/05/15 00:33:44;;;;;;;21.23;6.35;;;8.70;99.90;;;;;;5087498;28;20048;-68
2022/05/15 00:36:11;;;;;;;23.52;7.05;;;8.90;99.90;;;;;;5056510;28;20064;-68
2022/05/15 00:38:37;;;;;;;18.08;6.05;;;8.80;99.90;;;;;;5073653;28;20496;-68
2022/05/15 00:41:03;;;;;;;20.75;6.97;;;8.60;99.90;;;;;;5073552;28;20100;-68
2022/05/15 00:43:49;;;;;;;20.67;6.05;;;8.80;99.90;;;;;;5069857;28;20049;-68
2022/05/15 00:46:26;;;;;;;23.45;6.93;;;8.80;99.90;;;;;;5088473;28;20309;-68
2022/05/15 00:48:52;;;;;;;19.63;7.15;;;8.80;99.90;;;;;;5090645;28;20480;-68
2022/05/15 00:51:48;;;;;;;17.85;6.53;;;8.70;99.90;;;;;;5093520;28;20047;-68
2022/05/15 00:54:37;;;;;;;18.10;6.65;;;8.70;99.90;;;;;;5093551;28;20051;-68
2022/05/15 00:57:22;;;;;;;21.13;5.83;;;8.80;99.90;;;;;;5093506;28;20133;-68
2022/05/15 01:00:00;;;;;;;15.95;6.13;;;8.50;99.90;;;;;;5099853;28;20063;-68
2022/05/15 01:02:31;;;;;;;13.15;5.20;;;8.50;99.90;;;;;;5073409;28;20048;-68
2022/05/15 01:04:57;;;;;;;10.85;5.10;;;8.50;99.90;;;;;;5083176;28;20513;-68
2022/05/15 01:07:23;;;;;;;17.92;5.75;;;8.40;99.90;;;;;;5093406;28;20043;-68
2022/05/15 01:09:50;;;;;;;15.95;6.55;;;8.40;99.90;;;;;;5071105;28;21210;-68
2022/05/15 01:12:16;;;;;;;20.80;6.72;;;8.30;99.90;;;;;;5070194;28;20053;-68
2022/05/15 01:14:45;;;;;;;14.20;6.32;;;8.50;99.90;;;;;;5070226;28;20053;-68
2022/05/15 01:17:11;;;;;;;17.40;4.10;;;8.30;99.90;;;;;;5090681;28;20076;-68
2022/05/15 01:19:39;;;;;;;14.88;5.25;;;8.20;99.90;;;;;;5073297;28;20080;-68
2022/05/15 01:22:06;;;;;;;16.90;5.45;;;8.20;99.90;;;;;;5073325;28;20054;-68
2022/05/15 01:24:32;;;;;;;10.98;4.38;;;8.20;99.90;;;;;;5073031;28;20070;-68
2022/05/15 01:27:06;;;;;;;13.40;5.97;;;8.20;99.90;;;;;;5072929;28;20052;-68
2022/05/15 01:29:36;;;;;;;30.95;12.00;;;8.20;99.90;;;;;;5073342;28;20076;-68
2022/05/15 01:32:03;;;;;;;23.40;8.88;;;8.00;99.90;;;;;;5092171;28;20068;-68
2022/05/15 01:34:29;;;;;;;18.88;8.50;;;8.00;99.90;;;;;;5084998;28;20049;-68
2022/05/15 01:36:55;;;;;;;17.65;8.38;;;8.00;99.90;;;;;;5072664;28;20105;-68
2022/05/15 01:39:21;;;;;;;33.33;11.85;;;8.20;99.90;;;;;;5083341;28;20134;-68
2022/05/15 01:41:47;;;;;;;28.17;9.35;;;8.00;99.90;;;;;;5071999;28;20092;-68
2022/05/15 01:44:13;;;;;;;27.23;9.10;;;7.80;99.90;;;;;;5075202;28;20044;-68
2022/05/15 01:46:39;;;;;;;28.77;8.65;;;7.70;99.90;;;;;;5069021;28;20043;-68
2022/05/15 01:49:06;;;;;;;15.70;6.22;;;7.70;99.90;;;;;;5083212;28;20064;-68
2022/05/15 01:51:34;;;;;;;10.02;6.30;;;7.60;99.90;;;;;;5069253;28;20120;-68
2022/05/15 01:54:01;;;;;;;13.35;5.40;;;7.60;99.90;;;;;;5070297;28;20104;-68
2022/05/15 01:56:28;;;;;;;29.55;10.15;;;7.70;99.90;;;;;;5069745;28;20118;-68
2022/05/15 01:58:53;;;;;;;24.20;8.18;;;7.80;99.90;;;;;;5071179;28;20143;-68
2022/05/15 02:01:19;;;;;;;15.85;6.75;;;7.80;99.90;;;;;;5069279;28;20091;-68
2022/05/15 02:03:45;;;;;;;9.02;4.40;;;7.70;99.90;;;;;;5086203;28;20036;-68
2022/05/15 02:06:11;;;;;;;5.53;4.05;;;7.80;99.90;;;;;;5069630;28;20067;-68
2022/05/15 02:08:37;;;;;;;9.30;3.55;;;7.80;99.90;;;;;;5094288;28;20044;-68
2022/05/15 02:11:04;;;;;;;178.80;10.15;;;7.80;99.90;;;;;;5070554;28;20037;-68
2022/05/15 02:13:30;;;;;;;63.53;7.60;;;7.80;99.90;;;;;;5069304;28;20052;-68
2022/05/15 02:15:57;;;;;;;88.65;8.15;;;7.70;99.90;;;;;;5067514;28;20527;-68
2022/05/15 02:18:23;;;;;;;74.20;7.47;;;7.70;99.90;;;;;;5084229;28;20522;-68
2022/05/15 02:20:49;;;;;;;12.82;5.82;;;7.80;99.90;;;;;;5053251;28;20029;-68
2022/05/15 02:23:15;;;;;;;17.00;7.35;;;7.70;99.90;;;;;;5061951;28;20076;-68
2022/05/15 02:25:41;;;;;;;20.98;10.77;;;7.60;99.90;;;;;;5063815;28;20401;-68
2022/05/15 02:28:08;;;;;;;17.85;7.88;;;7.50;99.90;;;;;;5067743;28;20053;-68
2022/05/15 02:30:34;;;;;;;20.40;8.27;;;7.50;99.90;;;;;;5067478;28;20040;-68
2022/05/15 02:33:00;;;;;;;15.23;7.75;;;7.50;99.90;;;;;;5068161;28;20101;-68
2022/05/15 02:35:26;;;;;;;14.45;6.82;;;7.40;99.90;;;;;;5090402;28;20048;-68
2022/05/15 02:37:52;;;;;;;87.45;9.50;;;7.50;99.90;;;;;;5087220;28;20049;-68
2022/05/15 02:40:19;;;;;;;24.58;7.88;;;7.50;99.90;;;;;;5068362;28;20043;-68
2022/05/15 02:42:45;;;;;;;24.00;11.15;;;7.60;99.90;;;;;;5063881;28;20072;-68
2022/05/15 02:45:12;;;;;;;22.38;11.77;;;7.50;99.90;;;;;;5066568;28;20049;-68
2022/05/15 02:47:38;;;;;;;23.23;11.43;;;7.40;99.90;;;;;;5062366;28;20119;-68
2022/05/15 02:52:49;;;;;;;25.95;10.70;;;7.20;99.90;;;;;;5072525;28;20050;-68
2022/05/15 02:55:15;;;;;;;24.33;9.68;;;7.10;99.90;;;;;;5083404;28;20110;-68
2022/05/15 02:57:42;;;;;;;15.98;6.30;;;7.10;99.90;;;;;;5067238;28;20041;-68
2022/05/15 03:00:10;;;;;;;11.43;6.75;;;7.10;99.90;;;;;;5069722;28;20048;-68
2022/05/15 03:02:37;;;;;;;17.88;9.95;;;7.10;99.90;;;;;;5074988;28;20044;-68
2022/05/15 03:05:05;;;;;;;22.65;11.05;;;6.90;99.90;;;;;;5067922;28;20045;-68
2022/05/15 03:07:31;;;;;;;22.33;9.90;;;6.60;99.90;;;;;;5086665;28;20118;-68
2022/05/15 03:09:56;;;;;;;17.92;9.13;;;6.50;99.90;;;;;;5078730;28;20055;-68
2022/05/15 03:12:22;;;;;;;15.13;6.43;;;6.50;99.90;;;;;;5068794;28;20048;-68
2022/05/15 03:14:48;;;;;;;15.13;7.43;;;6.50;99.90;;;;;;5067921;28;20049;-68
2022/05/15 03:17:16;;;;;;;16.38;7.90;;;6.60;99.90;;;;;;5066614;28;20076;-68
2022/05/15 03:19:43;;;;;;;13.77;7.25;;;6.50;99.90;;;;;;5066098;28;20393;-68
2022/05/15 03:22:09;;;;;;;13.23;6.63;;;6.50;99.90;;;;;;5067737;28;20500;-67
2022/05/15 03:24:35;;;;;;;13.82;7.05;;;6.50;99.90;;;;;;5070331;28;20100;-68
2022/05/15 03:27:00;;;;;;;20.25;6.45;;;6.40;99.90;;;;;;5084890;28;20044;-68
2022/05/15 03:29:27;;;;;;;16.15;6.78;;;6.50;99.90;;;;;;5087447;28;20056;-68
2022/05/15 03:31:53;;;;;;;12.52;6.10;;;6.50;99.90;;;;;;5082496;28;20099;-68
2022/05/15 03:34:19;;;;;;;15.10;6.18;;;6.60;99.90;;;;;;5072069;28;20559;-68
2022/05/15 03:36:48;;;;;;;17.10;7.95;;;6.70;99.90;;;;;;5058694;28;20060;-68
2022/05/15 03:39:15;;;;;;;19.35;8.18;;;6.90;99.90;;;;;;5064358;28;20131;-68
2022/05/15 03:41:41;;;;;;;18.77;8.18;;;7.00;99.90;;;;;;5067259;28;20045;-68
2022/05/15 03:44:08;;;;;;;21.33;7.32;;;7.10;99.90;;;;;;5087997;28;20032;-68
2022/05/15 03:46:34;;;;;;;19.67;8.32;;;7.10;99.90;;;;;;5068237;28;20055;-68
2022/05/15 03:49:00;;;;;;;18.77;8.38;;;7.20;99.90;;;;;;5067292;28;20408;-68
2022/05/15 03:51:26;;;;;;;22.98;7.35;;;7.30;99.90;;;;;;5072134;28;20048;-68
2022/05/15 03:53:53;;;;;;;22.63;8.02;;;7.20;99.90;;;;;;5072016;28;20044;-68
2022/05/15 03:56:49;;;;;;;14.50;6.40;;;7.30;99.90;;;;;;5070167;28;20411;-68
2022/05/15 03:59:05;;;;;;;16.85;7.80;;;7.30;99.90;;;;;;5066655;28;20048;-68
2022/05/15 04:01:30;;;;;;;21.23;7.55;;;7.20;99.90;;;;;;5047437;28;20056;-68
2022/05/15 04:03:59;;;;;;;13.45;5.70;;;7.10;99.90;;;;;;5062680;28;20044;-68
2022/05/15 04:06:24;;;;;;;14.25;6.65;;;6.90;99.90;;;;;;5052103;28;20071;-68
2022/05/15 04:08:51;;;;;;;11.60;4.40;;;6.90;99.90;;;;;;5064106;28;20049;-68
2022/05/15 04:11:18;;;;;;;8.70;4.55;;;6.90;99.90;;;;;;5067725;28;20127;-68
2022/05/15 04:13:44;;;;;;;14.40;6.40;;;6.90;99.90;;;;;;5067251;28;20055;-68
2022/05/15 04:16:10;;;;;;;15.80;5.95;;;6.90;99.90;;;;;;5072334;28;20138;-68
2022/05/15 04:18:36;;;;;;;12.93;5.65;;;6.90;99.90;;;;;;5071532;28;20048;-68
2022/05/15 04:21:02;;;;;;;15.02;6.45;;;7.10;99.90;;;;;;5064087;28;20044;-68
2022/05/15 04:23:28;;;;;;;13.88;5.90;;;7.20;99.90;;;;;;5067675;28;20083;-68
2022/05/15 04:25:53;;;;;;;10.98;5.53;;;7.30;99.90;;;;;;5083051;28;20048;-68
2022/05/15 04:28:20;;;;;;;11.30;6.28;;;7.30;99.90;;;;;;5065578;28;20044;-68
2022/05/15 04:30:45;;;;;;;12.52;6.13;;;7.20;99.90;;;;;;5067040;28;20096;-68
2022/05/15 04:33:11;;;;;;;9.15;5.95;;;7.30;99.90;;;;;;5064982;28;20070;-68
2022/05/15 04:35:36;;;;;;;14.15;6.88;;;7.40;99.90;;;;;;5066394;28;20047;-68
2022/05/15 04:38:02;;;;;;;17.17;7.40;;;7.40;99.90;;;;;;5071614;28;20104;-68
2022/05/15 04:40:28;;;;;;;17.15;8.00;;;7.50;99.90;;;;;;5064715;28;20045;-68
2022/05/15 04:42:54;;;;;;;20.95;8.15;;;7.60;99.90;;;;;;5084791;28;20040;-68
2022/05/15 04:45:19;;;;;;;22.50;9.02;;;7.70;99.90;;;;;;5064754;28;20049;-68
2022/05/15 04:47:46;;;;;;;28.05;9.65;;;7.80;99.90;;;;;;5069895;28;20052;-68
2022/05/15 04:50:13;;;;;;;20.08;8.95;;;7.90;99.90;;;;;;5066891;28;20397;-68
2022/05/15 04:52:38;;;;;;;23.27;10.63;;;8.10;99.90;;;;;;5073050;28;20056;-68
2022/05/15 04:55:04;;;;;;;21.08;9.45;;;8.20;99.90;;;;;;5066197;28;20073;-68
2022/05/15 04:57:30;;;;;;;24.38;10.18;;;8.20;99.90;;;;;;5046963;28;20112;-68
2022/05/15 04:59:56;;;;;;;23.65;9.68;;;8.30;99.90;;;;;;5067131;28;20552;-68
2022/05/15 05:02:21;;;;;;;23.55;8.77;;;8.40;99.90;;;;;;5058004;28;20051;-68
2022/05/15 05:04:47;;;;;;;21.52;9.68;;;8.40;99.90;;;;;;5066746;28;20048;-68
2022/05/15 05:07:13;;;;;;;27.35;10.90;;;8.50;99.90;;;;;;5082991;28;20111;-68
2022/05/15 05:09:38;;;;;;;22.73;10.23;;;8.70;99.90;;;;;;5065399;28;20412;-68
2022/05/15 05:12:05;;;;;;;25.52;10.77;;;8.80;99.90;;;;;;5066963;28;20044;-68
2022/05/15 05:14:30;;;;;;;23.55;10.18;;;8.80;99.90;;;;;;5066951;28;20048;-68
2022/05/15 05:16:56;;;;;;;25.23;10.60;;;8.90;99.90;;;;;;5081119;28;20036;-68
2022/05/15 05:19:22;;;;;;;22.40;10.07;;;9.10;99.90;;;;;;5082608;28;20044;-68
2022/05/15 05:21:48;;;;;;;26.50;11.65;;;9.10;99.90;;;;;;5084291;28;20036;-68
2022/05/15 05:24:13;;;;;;;22.73;10.60;;;9.10;99.90;;;;;;5073234;28;20048;-68
2022/05/15 05:26:39;;;;;;;27.60;11.40;;;9.20;99.90;;;;;;5070029;28;20067;-68
2022/05/15 05:29:05;;;;;;;26.38;11.48;;;9.20;99.90;;;;;;5078724;28;20103;-68
2022/05/15 05:31:31;;;;;;;29.30;11.60;;;9.40;99.90;;;;;;5089935;28;20425;-68
2022/05/15 05:33:57;;;;;;;30.05;12.95;;;9.40;99.90;;;;;;5077865;28;20104;-68
2022/05/15 05:36:22;;;;;;;37.40;12.60;;;9.60;99.90;;;;;;5086588;28;20053;-68
2022/05/15 05:38:48;;;;;;;26.40;11.98;;;9.70;99.90;;;;;;5086893;28;20125;-68
2022/05/15 05:41:14;;;;;;;31.95;13.63;;;9.90;99.90;;;;;;5069333;28;20063;-68
2022/05/15 05:43:40;;;;;;;31.95;14.35;;;10.10;99.90;;;;;;5088240;28;20068;-68
2022/05/15 05:46:05;;;;;;;32.05;13.18;;;10.10;99.90;;;;;;5076333;28;20040;-68
2022/05/15 05:48:31;;;;;;;30.52;12.07;;;10.20;99.90;;;;;;5061944;28;20044;-68
2022/05/15 05:50:57;;;;;;;29.27;11.50;;;10.40;99.90;;;;;;5066799;28;20511;-68
2022/05/15 05:53:23;;;;;;;30.15;11.32;;;10.50;99.90;;;;;;5087070;28;20075;-68
2022/05/15 05:55:49;;;;;;;28.70;10.25;;;10.60;99.90;;;;;;5072268;28;20040;-68
2022/05/15 05:58:15;;;;;;;23.38;10.82;;;10.70;99.90;;;;;;5090201;28;20047;-68
2022/05/15 06:00:41;;;;;;;25.98;10.80;;;10.60;99.90;;;;;;5086805;28;20041;-68
2022/05/15 06:05:52;;;;;;;29.27;11.02;;;11.00;99.90;;;;;;5075766;28;20051;-68
2022/05/15 06:08:18;;;;;;;31.27;10.95;;;11.10;99.90;;;;;;5074647;28;20040;-68
2022/05/15 06:10:45;;;;;;;30.55;9.93;;;11.10;99.90;;;;;;5066318;28;20048;-68
2022/05/15 06:13:12;;;;;;;22.80;9.85;;;11.30;99.90;;;;;;5087879;28;20047;-68
2022/05/15 06:15:38;;;;;;;30.17;10.48;;;11.40;99.90;;;;;;5066413;28;20033;-69
2022/05/15 06:18:05;;;;;;;26.98;11.45;;;11.50;99.90;;;;;;5067151;28;20067;-68
2022/05/15 06:20:32;;;;;;;31.27;10.82;;;11.50;99.90;;;;;;5075025;28;20044;-68
2022/05/15 06:22:58;;;;;;;24.70;9.80;;;11.60;99.90;;;;;;5068319;28;20076;-68
2022/05/15 06:25:24;;;;;;;29.50;10.40;;;11.60;99.90;;;;;;5071600;28;20044;-68
2022/05/15 06:27:50;;;;;;;23.30;9.60;;;11.80;99.90;;;;;;5061638;28;20041;-64
2022/05/15 06:30:16;;;;;;;31.95;10.38;;;12.00;99.90;;;;;;5064990;28;20136;-65
2022/05/15 06:32:42;;;;;;;27.15;8.93;;;12.00;99.90;;;;;;5083743;28;20044;-65
2022/05/15 06:35:10;;;;;;;25.13;9.02;;;12.00;99.90;;;;;;5067786;28;20111;-65
2022/05/15 06:37:36;;;;;;;26.45;10.32;;;12.00;99.90;;;;;;5068028;28;20139;-65
2022/05/15 06:40:04;;;;;;;27.50;9.63;;;12.10;99.90;;;;;;5074668;28;20084;-65
2022/05/15 06:42:30;;;;;;;31.40;9.95;;;12.20;99.90;;;;;;5068719;28;20477;-65
2022/05/15 06:44:56;;;;;;;30.20;9.18;;;12.20;99.90;;;;;;5068971;28;20095;-65
2022/05/15 06:47:23;;;;;;;22.80;9.60;;;12.20;99.90;;;;;;5086502;28;20037;-65
2022/05/15 06:49:49;;;;;;;24.10;9.60;;;12.30;99.90;;;;;;5067474;28;20059;-65
2022/05/15 06:52:15;;;;;;;27.38;9.43;;;12.40;99.90;;;;;;5081780;28;20052;-66
2022/05/15 06:54:40;;;;;;;24.67;9.65;;;12.60;99.90;;;;;;5066600;28;20059;-67
2022/05/15 06:59:50;;;;;;;24.20;9.02;;;12.80;99.90;;;;;;5069765;28;20056;-66
2022/05/15 07:02:16;;;;;;;22.92;7.95;;;12.90;99.90;;;;;;5059100;28;20049;-66
2022/05/15 07:04:42;;;;;;;25.45;8.98;;;12.80;99.90;;;;;;5068978;28;20048;-65
2022/05/15 07:07:08;;;;;;;26.50;8.43;;;13.10;99.90;;;;;;5068075;28;20105;-66
2022/05/15 07:09:34;;;;;;;27.45;9.13;;;13.00;99.90;;;;;;5067852;28;20108;-66
2022/05/15 07:12:00;;;;;;;24.05;9.63;;;13.00;99.90;;;;;;5047994;28;20079;-66
2022/05/15 07:14:26;;;;;;;22.00;7.88;;;13.20;99.90;;;;;;5077357;28;20048;-66
2022/05/15 07:16:51;;;;;;;24.80;7.90;;;13.20;99.90;;;;;;5067248;28;20067;-66
2022/05/15 07:19:17;;;;;;;22.40;7.93;;;13.30;99.90;;;;;;5063863;28;20049;-67
2022/05/15 07:21:43;;;;;;;20.77;7.05;;;13.50;99.90;;;;;;5066821;28;20048;-67
2022/05/15 07:24:09;;;;;;;21.88;7.68;;;13.60;99.90;;;;;;5086030;28;20040;-67
2022/05/15 07:26:39;;;;;;;22.98;7.07;;;13.70;99.90;;;;;;5071159;28;20055;-67
2022/05/15 07:29:05;;;;;;;17.50;6.63;;;13.70;99.90;;;;;;5068473;28;20048;-67
2022/05/15 07:31:31;;;;;;;23.23;7.10;;;13.70;99.90;;;;;;5066282;28;20047;-67
2022/05/15 07:33:56;;;;;;;22.75;8.00;;;13.70;99.90;;;;;;5055974;28;20048;-67
2022/05/15 07:36:22;;;;;;;27.45;8.07;;;13.80;99.90;;;;;;5077632;28;20096;-67
2022/05/15 07:38:48;;;;;;;23.73;7.68;;;13.90;99.90;;;;;;5040833;28;20050;-67
2022/05/15 07:41:14;;;;;;;19.35;7.57;;;14.00;99.90;;;;;;5027621;28;20072;-67
2022/05/15 07:43:40;;;;;;;18.17;6.97;;;14.20;99.90;;;;;;5048725;28;20041;-67
2022/05/15 07:46:06;;;;;;;25.95;7.65;;;14.30;99.90;;;;;;5047427;28;20052;-67
2022/05/15 07:48:32;;;;;;;22.08;6.85;;;14.40;99.90;;;;;;5050820;28;20067;-67
2022/05/15 07:50:58;;;;;;;20.95;7.18;;;14.40;99.90;;;;;;5062454;28;20049;-67
2022/05/15 07:53:24;;;;;;;18.35;6.47;;;14.40;99.90;;;;;;5046712;28;20082;-67
2022/05/15 07:55:50;;;;;;;16.63;7.18;;;14.50;99.90;;;;;;5045417;28;20048;-67
2022/05/15 07:58:16;;;;;;;21.75;7.07;;;14.60;99.90;;;;;;5052632;28;20041;-66
2022/05/15 08:00:42;;;;;;;20.85;6.65;;;14.70;99.90;;;;;;5044519;28;20044;-67
2022/05/15 08:03:10;;;;;;;16.92;6.03;;;14.90;99.90;;;;;;5042195;28;20053;-67
2022/05/15 08:08:22;;;;;;;21.20;4.97;;;15.30;99.90;;;;;;5046859;28;20052;-67
2022/05/15 08:10:49;;;;;;;17.30;5.97;;;15.20;99.90;;;;;;5029503;28;20048;-67
2022/05/15 08:13:25;;;;;;;24.13;5.82;;;15.40;99.90;;;;;;5069000;28;20060;-67
2022/05/15 08:15:52;;;;;;;21.92;5.60;;;15.30;99.90;;;;;;5043826;28;20075;-67
2022/05/15 08:24:01;;;;;;;17.65;4.28;;;15.40;99.90;;;;;;4968575;28;20053;-70
2022/05/15 08:26:28;;;;;;;18.67;5.30;;;15.50;99.90;;;;;;4981106;28;20289;-67
2022/05/15 08:28:54;;;;;;;17.27;5.50;;;15.60;99.90;;;;;;4986784;28;20059;-67
2022/05/15 08:31:24;;;;;;;20.58;5.25;;;15.70;99.90;;;;;;4964535;28;20053;-68
2022/05/15 08:33:51;;;;;;;14.27;4.60;;;15.70;99.90;;;;;;4982315;28;20073;-68
2022/05/15 08:36:17;;;;;;;15.23;5.00;;;15.70;99.90;;;;;;4978912;28;20085;-68
2022/05/15 08:38:45;;;;;;;16.35;5.25;;;15.80;99.90;;;;;;5011058;28;20046;-67
2022/05/15 08:41:16;;;;;;;15.65;4.97;;;16.00;99.90;;;;;;5002928;28;20495;-68
2022/05/15 08:43:51;;;;;;;16.63;4.55;;;16.10;99.90;;;;;;5010105;28;20042;-68
2022/05/15 08:46:46;;;;;;;15.75;5.50;;;16.10;99.90;;;;;;5001084;28;20057;-68
2022/05/15 08:49:26;;;;;;;19.52;5.00;;;16.20;99.90;;;;;;5007764;28;20117;-68
2022/05/15 08:52:11;;;;;;;;;;;16.20;99.90;;;;;;5013315;28;20522;-68
2022/05/15 08:54:53;;;;;;;14.23;4.95;;;16.20;99.90;;;;;;5014235;28;19928;-68
2022/05/15 08:57:36;;;;;;;19.55;4.05;;;16.40;99.90;;;;;;5013034;28;20168;-68
2022/05/15 09:00:06;;;;;;;18.67;4.50;;;16.70;99.90;;;;;;5036180;28;20064;-68
2022/05/15 09:02:32;;;;;;;14.00;4.35;;;16.70;99.90;;;;;;5068266;28;20059;-68
2022/05/15 09:04:58;;;;;;;16.35;4.47;;;16.70;99.90;;;;;;5066948;28;20033;-68
2022/05/15 09:07:38;;;;;;;18.65;5.72;;;16.80;99.90;;;;;;5065463;28;20051;-68
2022/05/15 09:10:16;;;;;;;15.52;5.65;;;16.80;99.90;;;;;;5054357;28;20045;-68
2022/05/15 09:12:45;;;;;;;21.35;5.80;;;16.70;99.90;;;;;;5051689;28;20076;-68
2022/05/15 09:15:21;;;;;;;24.92;5.15;;;16.80;99.90;;;;;;5078330;28;20085;-68
2022/05/15 09:18:02;;;;;;;19.73;5.80;;;16.80;99.90;;;;;;5078900;28;20049;-69
2022/05/15 09:21:08;;;;;;;20.85;5.35;;;16.90;99.90;;;;;;5069188;28;20109;-66
2022/05/15 09:23:45;;;;;;;17.20;5.05;;;17.00;99.90;;;;;;5068222;28;20083;-66
2022/05/15 09:26:20;;;;;;;18.42;5.15;;;17.00;99.90;;;;;;5073756;28;20098;-66
2022/05/15 09:28:55;;;;;;;16.35;4.50;;;17.00;99.90;;;;;;5069290;28;20055;-66
2022/05/15 09:31:44;;;;;;;22.27;4.90;;;17.20;99.90;;;;;;5068796;28;20048;-66
2022/05/15 09:34:35;;;;;;;23.83;5.72;;;17.20;99.90;;;;;;5069068;28;20055;-66
2022/05/15 09:39:52;;;;;;;11.65;4.07;;;17.30;99.90;;;;;;5084020;28;20127;-66
2022/05/15 09:45:16;;;;;;;16.20;4.80;;;17.30;99.90;;;;;;4901931;28;4597747;-69
2022/05/15 09:47:45;;;;;;;14.02;4.57;;;17.30;99.90;;;;;;5047891;28;20045;-68
2022/05/15 09:50:38;;;;;;;16.13;5.27;;;17.40;99.90;;;;;;5065883;28;20037;-66
2022/05/15 09:53:20;;;;;;;14.65;5.03;;;17.50;99.90;;;;;;5063620;28;20037;-65
2022/05/15 09:56:05;;;;;;;17.38;4.80;;;17.50;99.90;;;;;;5047820;28;20059;-65
2022/05/15 09:58:52;;;;;;;17.45;4.93;;;17.60;99.90;;;;;;5067436;28;20040;-70
2022/05/15 10:01:28;;;;;;;18.80;5.22;;;17.80;99.90;;;;;;5049532;28;20099;-70
2022/05/15 10:03:57;;;;;;;20.33;5.35;;;18.00;99.90;;;;;;5064450;28;20106;-70
2022/05/15 10:06:25;;;;;;;22.35;5.38;;;18.10;99.90;;;;;;5047874;28;20049;-70
2022/05/15 10:09:15;;;;;;;16.00;4.57;;;18.10;99.90;;;;;;5060650;28;20092;-70
2022/05/15 10:11:46;;;;;;;14.80;4.72;;;18.50;99.90;;;;;;5050057;28;20052;-71
2022/05/15 10:14:25;;;;;;;14.98;4.68;;;18.50;99.90;;;;;;5054095;28;20040;-71
2022/05/15 10:16:57;;;;;;;16.45;5.00;;;18.60;99.90;;;;;;5056714;28;20076;-71
2022/05/15 10:19:44;;;;;;;16.08;4.53;;;18.60;99.90;;;;;;5067362;28;20186;-70
2022/05/15 10:22:29;;;;;;;18.05;4.60;;;18.70;99.90;;;;;;5064432;28;20060;-68
2022/05/15 10:25:04;;;;;;;15.13;4.10;;;18.80;99.90;;;;;;5046093;28;20044;-69
2022/05/15 10:27:32;;;;;;;19.15;5.28;;;19.20;99.90;;;;;;5052741;28;20370;-66
2022/05/15 10:30:05;;;;;;;14.93;4.70;;;19.20;99.90;;;;;;5051941;28;20099;-66
2022/05/15 10:32:42;;;;;;;13.82;4.72;;;19.50;99.90;;;;;;5063662;28;20081;-73
2022/05/15 10:35:13;;;;;;;16.55;4.25;;;19.70;99.90;;;;;;5045557;28;20041;-73
2022/05/15 10:38:07;;;;;;;17.65;5.45;;;19.80;99.90;;;;;;5064590;28;20114;-73
2022/05/15 10:40:53;;;;;;;15.50;4.18;;;19.70;99.90;;;;;;5051270;28;20080;-72
2022/05/15 10:43:54;;;;;;;14.60;4.97;;;19.90;99.90;;;;;;5046029;28;20551;-72
2022/05/15 10:46:38;;;;;;;14.68;4.53;;;20.10;99.90;;;;;;5005084;28;20065;-72
2022/05/15 10:49:19;;;;;;;19.00;5.25;;;20.40;99.90;;;;;;4988396;28;20046;-72
2022/05/15 10:51:56;;;;;;;14.75;4.32;;;20.30;99.90;;;;;;4987593;28;20049;-72
2022/05/15 10:57:55;;;;;;;16.65;5.18;;;20.10;99.90;;;;;;4987506;28;20077;-72
2022/05/15 11:00:37;;;;;;;14.02;4.30;;;20.10;99.90;;;;;;4988491;28;20100;-72
2022/05/15 11:03:21;;;;;;;18.40;4.95;;;20.10;99.90;;;;;;4985373;28;20058;-72
2022/05/15 11:06:27;;;;;;;14.10;4.75;;;19.90;99.90;;;;;;4967353;28;20522;-72
2022/05/15 11:09:11;;;;;;;14.45;4.40;;;20.20;99.90;;;;;;4982293;28;20214;-72
2022/05/15 11:11:55;;;;;;;12.10;4.75;;;20.30;99.90;;;;;;4987088;28;20049;-72
2022/05/15 11:14:29;;;;;;;21.48;5.28;;;20.30;99.90;;;;;;4988332;28;20061;-73
2022/05/15 11:16:55;;;;;;;14.07;4.10;;;20.40;99.90;;;;;;4987190;28;20081;-72
2022/05/15 11:19:37;;;;;;;15.50;4.93;;;20.40;99.90;;;;;;4988638;28;20050;-72
2022/05/15 11:22:15;;;;;;;16.80;4.22;;;20.50;99.90;;;;;;5033549;28;20053;-72
2022/05/15 11:24:54;;;;;;;13.55;4.32;;;20.60;99.90;;;;;;5046286;28;20049;-72
2022/05/15 11:27:30;;;;;;;13.95;4.78;;;20.70;99.90;;;;;;5047633;28;20064;-72
2022/05/15 11:30:02;;;;;;;11.77;3.97;;;20.80;99.90;;;;;;5048007;28;20037;-72
2022/05/15 11:32:46;;;;;;;13.63;5.10;;;20.90;99.90;;;;;;5048870;28;20048;-72
2022/05/15 11:35:17;;;;;;;15.00;4.13;;;21.20;99.90;;;;;;5069558;28;20137;-72
2022/05/15 11:38:07;;;;;;;14.63;4.97;;;21.40;99.90;;;;;;5064920;28;20459;-72
2022/05/15 11:40:32;;;;;;;;;;;21.20;99.90;;;;;;5046925;28;20087;-72
2022/05/15 11:42:58;;;;;;;15.00;4.18;;;21.30;99.90;;;;;;5044220;28;19933;-72
2022/05/15 11:45:38;;;;;;;14.52;5.35;;;21.40;99.90;;;;;;5049426;28;20080;-72
2022/05/15 11:48:39;;;;;;;15.48;4.13;;;21.80;98.00;;;;;;5030111;28;20048;-72
2022/05/15 11:51:12;;;;;;;14.32;4.40;;;21.90;96.80;;;;;;5033516;28;20064;-72
2022/05/15 11:54:16;;;;;;;13.98;4.50;;;21.90;96.90;;;;;;5046745;28;20049;-73
2022/05/15 11:56:54;;;;;;;15.55;4.72;;;21.80;98.30;;;;;;5045163;28;20045;-72
2022/05/15 11:59:47;;;;;;;15.73;4.32;;;21.90;96.00;;;;;;5030607;28;20028;-73
2022/05/15 12:02:30;;;;;;;17.45;4.72;;;22.10;95.90;;;;;;5042495;28;20056;-72
2022/05/15 12:05:20;;;;;;;13.93;4.10;;;21.90;96.00;;;;;;5042936;28;20102;-72
2022/05/15 12:07:53;;;;;;;11.13;4.00;;;21.90;95.30;;;;;;5044925;28;20037;-72
2022/05/15 12:10:39;;;;;;;13.35;3.90;;;22.10;96.80;;;;;;5028769;28;20064;-72
2022/05/15 12:13:12;;;;;;;14.35;4.75;;;22.20;95.70;;;;;;5042939;28;20136;-72
2022/05/15 12:15:46;;;;;;;12.05;4.10;;;22.20;95.40;;;;;;5046179;28;20037;-72
2022/05/15 12:18:30;;;;;;;14.93;5.20;;;22.20;94.80;;;;;;5046233;28;20076;-73
2022/05/15 12:20:57;;;;;;;13.57;4.53;;;22.30;96.20;;;;;;5046934;28;20056;-72
2022/05/15 12:24:27;;;;;;;13.68;3.97;;;22.20;95.10;;;;;;5050920;28;20051;-72
2022/05/15 12:26:59;;;;;;;13.25;3.83;;;22.20;94.60;;;;;;5045205;28;20057;-72
2022/05/15 12:29:53;;;;;;;10.88;3.80;;;22.50;93.40;;;;;;5028290;28;20059;-72
2022/05/15 12:32:39;;;;;;;14.52;4.40;;;22.50;93.50;;;;;;5044342;28;20052;-72
2022/05/15 12:35:12;;;;;;;12.68;4.40;;;22.40;93.50;;;;;;5046671;28;20045;-72
2022/05/15 12:37:50;;;;;;;14.30;4.35;;;22.60;94.20;;;;;;5042589;28;20100;-72
2022/05/15 12:40:26;;;;;;;15.13;4.63;;;22.70;92.20;;;;;;5045553;28;20060;-72
2022/05/15 12:42:53;;;;;;;11.48;4.38;;;22.70;90.40;;;;;;5044520;28;20521;-72
2022/05/15 12:45:21;;;;;;;12.65;3.97;;;22.80;91.20;;;;;;5067797;28;20048;-72
2022/05/15 12:48:08;;;;;;;16.85;4.57;;;23.00;92.20;;;;;;5044768;28;20141;-72
2022/05/15 12:50:56;;;;;;;13.98;4.07;;;23.20;89.30;;;;;;5046831;28;20069;-72
2022/05/15 12:53:26;;;;;;;14.07;4.60;;;23.20;88.60;;;;;;5062920;28;20501;-72
2022/05/15 12:55:53;;;;;;;14.15;3.97;;;23.30;88.30;;;;;;5063373;28;20037;-72
2022/05/15 12:58:32;;;;;;;11.43;3.92;;;23.30;86.40;;;;;;5058818;28;20044;-72
2022/05/15 13:00:58;;;;;;;11.57;4.00;;;23.30;85.50;;;;;;5056814;28;20049;-72
2022/05/15 13:03:24;;;;;;;13.10;3.67;;;23.40;87.70;;;;;;5064187;28;20519;-72
2022/05/15 13:05:58;;;;;;;12.95;4.32;;;23.60;85.70;;;;;;5061350;28;20044;-72
2022/05/15 13:08:25;;;;;;;16.10;4.55;;;23.60;86.30;;;;;;5042666;28;20053;-72
2022/05/15 13:10:55;;;;;;;15.52;4.68;;;23.60;85.00;;;;;;5050523;28;20056;-72
2022/05/15 13:13:35;;;;;;;10.45;3.80;;;23.70;85.70;;;;;;5059225;28;20060;-72
2022/05/15 13:16:03;;;;;;;17.30;4.50;;;24.20;80.90;;;;;;5044744;28;20047;-72
2022/05/15 13:18:32;;;;;;;17.38;4.75;;;24.30;80.60;;;;;;5046970;28;20044;-73
2022/05/15 13:21:05;;;;;;;14.20;4.50;;;24.50;77.90;;;;;;5059152;28;20053;-72
2022/05/15 13:23:43;;;;;;;15.13;3.60;;;24.60;76.30;;;;;;5040134;28;20128;-72
2022/05/15 13:26:13;;;;;;;14.63;4.38;;;24.80;76.00;;;;;;5045146;28;20049;-73